Terminal Aerodrome Forecast
Issued by NWS Memphis, TN

Current Version | Previous Version | Text Only | Print | Product List | Glossary On
Versions: 1 2 3 4 5 6 7 8 9 10 11 12 13 14
420
FTUS44 KMEG 141731
TAFJBR
TAF
KJBR 141731Z 1418/1518 33008KT P6SM BKN035
     FM150000 VRB02KT P6SM BKN035
     FM151500 28008KT P6SM SCT035=

USA.gov is the U.S. government's official web portal to all federal, state and local government web resources and services.